Time;durP1;ratioP1;P1;durP2;ratioP2;P2;SDS_P1;SDS_P2;PMS_P1;PMS_P2;Temp;Humidity;BMP_temperature;BMP_pressure;BME280_temperature;BME280_humidity;BME280_pressure;Samples;Min_cycle;Max_cycle;Signal;HPM_P1;HPM_P2
2023/09/25 00:00:11;;;;;;;1.38;0.90;;;18.90;60.70;;;;;;5931899;24;20190;-83
2023/09/25 00:02:40;;;;;;;1.05;0.80;;;18.90;60.90;;;;;;5975612;23;20213;-84
2023/09/25 00:05:10;;;;;;;1.50;1.00;;;18.90;61.10;;;;;;5999072;23;20228;-84
2023/09/25 00:07:40;;;;;;;1.48;0.90;;;18.90;61.00;;;;;;6027194;23;20153;-84
2023/09/25 00:10:11;;;;;;;1.27;1.00;;;19.00;61.10;;;;;;6032012;23;20160;-84
2023/09/25 00:12:45;;;;;;;1.23;1.00;;;18.90;61.10;;;;;;6055483;23;20157;-83
2023/09/25 00:15:15;;;;;;;1.73;1.00;;;18.90;61.10;;;;;;6039959;23;20504;-84
2023/09/25 00:17:43;;;;;;;1.10;1.00;;;19.00;61.20;;;;;;6039317;23;20150;-84
2023/09/25 00:20:15;;;;;;;1.65;0.82;;;18.90;61.10;;;;;;6057969;23;20157;-84
2023/09/25 00:22:57;;;;;;;1.25;0.93;;;19.00;61.10;;;;;;6039160;23;20157;-84
2023/09/25 00:25:31;;;;;;;0.80;0.80;;;18.90;61.00;;;;;;6042826;23;20183;-84
2023/09/25 00:27:59;;;;;;;1.02;0.80;;;19.00;61.10;;;;;;6035497;23;20274;-83
2023/09/25 00:30:46;;;;;;;0.90;0.90;;;18.90;61.20;;;;;;6006433;23;20253;-83
2023/09/25 00:33:12;;;;;;;1.45;1.10;;;18.90;61.10;;;;;;6006090;23;20193;-83
2023/09/25 00:35:45;;;;;;;1.35;1.00;;;19.00;61.40;;;;;;6006483;23;20162;-84
2023/09/25 00:38:17;;;;;;;1.42;1.00;;;18.90;61.20;;;;;;6006043;23;20201;-83
2023/09/25 00:40:47;;;;;;;1.40;1.20;;;18.90;61.30;;;;;;6038085;23;20187;-84
2023/09/25 00:43:37;;;;;;;1.20;0.90;;;18.90;61.30;;;;;;5996794;23;20161;-83
2023/09/25 00:46:12;;;;;;;1.00;0.90;;;18.90;61.40;;;;;;6006304;23;20221;-82
2023/09/25 00:48:45;;;;;;;1.10;1.00;;;18.90;61.40;;;;;;6094806;23;20599;-83
2023/09/25 00:51:11;;;;;;;1.10;1.00;;;18.90;61.40;;;;;;6050493;23;20690;-84
2023/09/25 00:53:41;;;;;;;1.10;1.00;;;18.90;61.30;;;;;;6096384;23;20267;-85
2023/09/25 00:56:15;;;;;;;1.17;0.85;;;19.00;61.40;;;;;;6096818;23;20228;-84
2023/09/25 00:58:45;;;;;;;0.77;0.77;;;18.90;61.40;;;;;;6072474;23;20163;-84
2023/09/25 01:01:11;;;;;;;1.75;0.98;;;18.90;61.40;;;;;;6072336;23;20155;-84
2023/09/25 01:03:44;;;;;;;1.75;1.20;;;18.90;61.40;;;;;;6072089;23;20215;-84
2023/09/25 01:06:14;;;;;;;1.13;1.00;;;18.90;61.20;;;;;;6027917;23;20156;-85
2023/09/25 01:08:42;;;;;;;1.23;1.00;;;19.00;61.20;;;;;;6005885;23;20161;-84
2023/09/25 01:11:11;;;;;;;1.40;1.08;;;18.90;61.30;;;;;;6041859;23;20193;-83
2023/09/25 01:13:38;;;;;;;1.10;0.88;;;18.90;61.60;;;;;;6018241;23;20217;-84
2023/09/25 01:16:14;;;;;;;1.00;0.90;;;18.90;61.40;;;;;;6042581;23;20606;-84
2023/09/25 01:18:39;;;;;;;1.45;0.95;;;18.90;61.40;;;;;;6026031;23;20153;-83
2023/09/25 01:21:06;;;;;;;0.93;0.80;;;18.90;61.40;;;;;;6099331;23;20516;-84
2023/09/25 01:23:33;;;;;;;1.17;0.82;;;18.90;61.50;;;;;;6120321;23;20242;-83
2023/09/25 01:26:04;;;;;;;1.00;0.90;;;18.90;61.60;;;;;;6153429;23;20159;-83
2023/09/25 01:28:36;;;;;;;1.25;0.90;;;19.00;61.60;;;;;;6071693;23;20275;-84
2023/09/25 01:31:17;;;;;;;1.30;0.90;;;18.90;61.60;;;;;;6070886;23;20164;-84
2023/09/25 01:33:45;;;;;;;1.15;0.90;;;18.90;61.50;;;;;;6027358;23;20192;-84
2023/09/25 01:36:16;;;;;;;1.23;1.10;;;18.90;61.50;;;;;;6116067;23;20153;-83
2023/09/25 01:38:45;;;;;;;1.17;0.98;;;18.80;61.50;;;;;;5953209;24;20198;-83
2023/09/25 01:41:10;;;;;;;1.00;0.80;;;18.90;61.80;;;;;;5953748;23;20159;-85
2023/09/25 01:43:39;;;;;;;1.05;0.88;;;18.90;61.80;;;;;;5953065;23;20234;-83
2023/09/25 01:46:06;;;;;;;1.40;1.00;;;18.90;61.60;;;;;;5952864;23;20168;-83
2023/09/25 01:48:32;;;;;;;1.15;1.00;;;18.90;61.70;;;;;;5952603;23;20239;-84
2023/09/25 01:51:00;;;;;;;1.52;0.98;;;18.90;61.80;;;;;;5976023;24;20619;-83
2023/09/25 01:53:35;;;;;;;1.08;0.98;;;18.90;61.70;;;;;;5952730;23;20250;-84
2023/09/25 01:56:10;;;;;;;1.08;0.90;;;18.90;61.50;;;;;;6065371;23;20164;-84
2023/09/25 01:58:38;;;;;;;1.42;1.17;;;18.80;61.70;;;;;;6031590;23;20153;-83
2023/09/25 02:01:08;;;;;;;1.02;0.90;;;18.80;61.40;;;;;;6018513;23;20180;-83
2023/09/25 02:03:47;;;;;;;1.70;0.90;;;18.80;61.70;;;;;;6064752;23;20236;-83
2023/09/25 02:06:19;;;;;;;1.13;0.90;;;18.90;61.80;;;;;;6076681;23;20159;-83
2023/09/25 02:08:51;;;;;;;1.00;0.80;;;18.90;61.60;;;;;;6097987;23;20545;-84
2023/09/25 02:11:19;;;;;;;1.27;1.05;;;18.90;61.60;;;;;;6075907;23;20155;-83
2023/09/25 02:13:48;;;;;;;1.23;1.02;;;18.80;61.70;;;;;;6123666;23;20176;-82
2023/09/25 02:16:18;;;;;;;1.27;1.10;;;18.80;61.70;;;;;;6128399;23;20170;-83
2023/09/25 02:18:51;;;;;;;1.85;1.13;;;18.90;62.50;;;;;;6104364;23;20140;-84
2023/09/25 02:21:28;;;;;;;1.10;1.00;;;18.90;61.90;;;;;;6107174;23;20151;-83
2023/09/25 02:24:03;;;;;;;1.35;1.00;;;18.90;61.80;;;;;;6075849;23;20167;-83
2023/09/25 02:26:43;;;;;;;1.20;1.08;;;18.90;61.70;;;;;;6086443;23;20161;-83
2023/09/25 02:29:13;;;;;;;1.27;0.93;;;18.90;61.80;;;;;;6019704;23;20215;-84
2023/09/25 02:31:48;;;;;;;1.27;1.05;;;18.90;61.80;;;;;;6065900;23;20250;-84
2023/09/25 02:34:16;;;;;;;1.30;1.10;;;18.90;61.80;;;;;;6042482;23;20253;-83
2023/09/25 02:36:48;;;;;;;1.10;0.80;;;18.80;61.80;;;;;;6043122;23;20199;-84
2023/09/25 02:39:16;;;;;;;1.23;1.00;;;18.90;61.80;;;;;;6123110;23;20157;-84
2023/09/25 02:41:56;;;;;;;1.13;0.98;;;18.90;61.90;;;;;;6099227;23;20162;-83
2023/09/25 02:44:38;;;;;;;1.13;1.02;;;18.80;61.90;;;;;;6076372;23;20160;-83
2023/09/25 02:47:08;;;;;;;1.42;1.10;;;18.80;61.80;;;;;;6075711;23;20192;-83
2023/09/25 02:49:34;;;;;;;1.10;0.93;;;18.80;61.90;;;;;;6071630;23;20165;-84
2023/09/25 03:23:40;;;;;;;1.25;0.80;;;18.80;61.90;;;;;;6122251;23;20217;-84
2023/09/25 03:26:21;;;;;;;0.85;0.80;;;18.80;62.00;;;;;;6089429;23;20160;-84
2023/09/25 03:28:48;;;;;;;1.25;1.05;;;18.80;62.30;;;;;;5978005;23;20198;-83
2023/09/25 03:31:20;;;;;;;1.13;0.88;;;18.80;62.00;;;;;;5985218;23;20164;-84
2023/09/25 03:33:52;;;;;;;1.45;1.00;;;18.80;62.20;;;;;;5986014;23;20178;-84
2023/09/25 03:36:34;;;;;;;1.17;1.08;;;18.80;62.20;;;;;;5986610;23;20185;-83
2023/09/25 03:39:18;;;;;;;1.73;1.00;;;18.80;62.10;;;;;;6011136;23;20192;-84
2023/09/25 03:41:56;;;;;;;1.20;1.00;;;18.80;62.10;;;;;;6003789;23;20147;-84
2023/09/25 03:44:31;;;;;;;0.80;0.73;;;18.80;62.10;;;;;;6095523;23;20288;-83
2023/09/25 03:47:05;;;;;;;0.98;0.88;;;18.80;62.20;;;;;;6097565;23;20244;-85
2023/09/25 03:49:45;;;;;;;1.20;1.00;;;18.90;62.30;;;;;;6102478;23;20196;-84
2023/09/25 03:52:21;;;;;;;0.82;0.80;;;18.80;62.40;;;;;;6074429;23;20158;-85
2023/09/25 03:54:55;;;;;;;1.67;1.10;;;18.80;62.30;;;;;;6071126;23;20190;-83
2023/09/25 03:57:31;;;;;;;1.10;1.00;;;18.80;62.30;;;;;;6116022;23;20161;-83
2023/09/25 04:00:06;;;;;;;1.27;0.85;;;18.80;62.20;;;;;;6002549;23;20149;-83
2023/09/25 04:02:37;;;;;;;1.08;0.98;;;18.90;63.10;;;;;;6086973;23;20153;-84
2023/09/25 04:05:13;;;;;;;0.77;0.77;;;18.80;62.30;;;;;;6089481;23;20231;-83
2023/09/25 04:07:47;;;;;;;1.08;0.95;;;18.80;62.30;;;;;;6097801;23;20300;-83
2023/09/25 04:10:23;;;;;;;1.30;0.98;;;18.70;62.20;;;;;;6093658;23;20153;-83
2023/09/25 04:12:58;;;;;;;1.42;1.05;;;18.80;62.40;;;;;;6093669;23;20208;-84
2023/09/25 04:15:25;;;;;;;1.23;0.90;;;18.80;62.20;;;;;;6118722;23;20153;-84
2023/09/25 04:17:54;;;;;;;0.90;0.90;;;18.80;62.50;;;;;;6117950;23;20160;-84
2023/09/25 04:20:33;;;;;;;1.00;0.82;;;18.80;62.30;;;;;;6093544;23;20185;-83
2023/09/25 04:23:04;;;;;;;1.10;0.90;;;18.80;62.40;;;;;;6057632;23;20162;-83
2023/09/25 04:25:29;;;;;;;1.05;0.90;;;18.80;62.40;;;;;;6030545;23;20163;-84
2023/09/25 04:28:00;;;;;;;1.50;1.08;;;18.70;62.20;;;;;;6007188;23;20286;-83
2023/09/25 04:30:45;;;;;;;1.13;0.90;;;18.70;62.30;;;;;;5965478;23;20639;-83
2023/09/25 04:33:18;;;;;;;0.85;0.82;;;18.80;62.40;;;;;;6014204;23;20192;-83
2023/09/25 04:35:45;;;;;;;1.50;1.10;;;18.80;62.50;;;;;;6072500;23;20178;-82
2023/09/25 04:38:20;;;;;;;0.95;0.80;;;18.80;62.60;;;;;;6126806;23;20547;-84
2023/09/25 04:40:52;;;;;;;1.35;1.08;;;18.80;62.60;;;;;;6024539;23;20152;-84
2023/09/25 04:43:22;;;;;;;1.17;1.00;;;18.80;62.50;;;;;;6045626;23;20244;-83
2023/09/25 04:45:58;;;;;;;1.52;1.10;;;18.90;62.50;;;;;;6046228;23;20167;-83
2023/09/25 04:48:31;;;;;;;1.10;1.00;;;18.70;62.30;;;;;;6047846;23;20197;-84
2023/09/25 04:51:00;;;;;;;1.27;0.90;;;18.80;62.50;;;;;;6072762;23;20153;-84
2023/09/25 04:53:34;;;;;;;1.30;1.00;;;18.70;62.30;;;;;;6079794;23;20194;-84
2023/09/25 04:56:06;;;;;;;1.08;0.95;;;18.80;62.70;;;;;;6061511;23;20160;-83
2023/09/25 04:58:35;;;;;;;1.02;0.80;;;18.80;62.70;;;;;;6081857;23;20155;-85
2023/09/25 05:01:04;;;;;;;2.22;1.10;;;18.80;62.50;;;;;;6128676;23;20722;-84
2023/09/25 05:03:35;;;;;;;1.20;1.02;;;18.80;62.80;;;;;;6104051;23;20186;-84
2023/09/25 05:06:11;;;;;;;1.10;1.00;;;18.80;62.70;;;;;;6036482;23;20616;-84
2023/09/25 05:08:46;;;;;;;1.95;1.40;;;18.80;62.60;;;;;;6051395;23;20189;-84
2023/09/25 05:11:18;;;;;;;0.90;0.80;;;18.80;62.60;;;;;;6074016;23;20155;-83
2023/09/25 05:13:50;;;;;;;1.05;0.90;;;18.80;62.70;;;;;;6096069;23;20227;-83
2023/09/25 05:16:17;;;;;;;1.42;1.00;;;18.80;62.60;;;;;;6097454;23;20136;-84
2023/09/25 05:18:46;;;;;;;1.25;1.10;;;18.80;62.90;;;;;;6218284;23;20149;-84
2023/09/25 05:21:15;;;;;;;1.08;0.90;;;18.70;62.70;;;;;;6152899;23;20159;-83
2023/09/25 05:23:43;;;;;;;1.25;1.02;;;18.80;62.90;;;;;;6128471;23;20291;-84
2023/09/25 05:26:19;;;;;;;1.30;0.90;;;18.80;62.80;;;;;;6153859;23;20189;-83
2023/09/25 05:28:50;;;;;;;1.08;0.98;;;18.80;62.70;;;;;;6098781;23;20230;-84
2023/09/25 05:31:37;;;;;;;1.52;1.10;;;18.80;62.90;;;;;;5973567;23;20244;-83
2023/09/25 05:34:11;;;;;;;1.05;0.80;;;18.80;62.70;;;;;;6065372;23;20272;-84
2023/09/25 05:36:39;;;;;;;1.08;0.90;;;18.70;62.70;;;;;;6042142;23;20212;-84
2023/09/25 05:39:08;;;;;;;1.13;0.90;;;18.70;62.70;;;;;;6066012;23;20158;-84
2023/09/25 05:41:40;;;;;;;1.38;0.93;;;18.70;62.70;;;;;;6003576;23;20159;-83
2023/09/25 05:44:08;;;;;;;1.17;0.90;;;18.70;62.70;;;;;;5981132;24;20171;-83
2023/09/25 05:46:37;;;;;;;1.48;1.00;;;18.70;62.70;;;;;;5957780;24;20168;-84
2023/09/25 05:49:06;;;;;;;0.80;0.80;;;18.80;62.70;;;;;;5954465;24;20689;-79
2023/09/25 05:51:33;;;;;;;1.50;1.20;;;18.80;62.80;;;;;;5873719;24;20648;-81
2023/09/25 05:53:59;;;;;;;1.13;1.00;;;18.70;62.90;;;;;;5893151;24;20264;-81
2023/09/25 05:56:24;;;;;;;1.13;0.85;;;18.70;62.90;;;;;;5894174;24;20200;-82
2023/09/25 05:58:52;;;;;;;1.75;1.15;;;18.70;62.90;;;;;;5902373;24;20152;-84
2023/09/25 06:01:18;;;;;;;1.27;1.10;;;18.70;62.90;;;;;;5956883;23;20825;-85
2023/09/25 06:03:43;;;;;;;2.15;1.10;;;18.80;62.90;;;;;;6008877;23;20142;-82
2023/09/25 06:06:09;;;;;;;1.58;1.13;;;18.70;62.90;;;;;;6033012;23;20221;-82
2023/09/25 06:08:35;;;;;;;1.30;1.08;;;18.80;62.90;;;;;;6008453;23;20147;-84
2023/09/25 06:11:02;;;;;;;1.10;1.00;;;18.80;62.90;;;;;;6009268;23;20181;-83
2023/09/25 06:13:30;;;;;;;1.05;0.95;;;18.80;62.90;;;;;;6106983;23;20176;-83
2023/09/25 06:16:11;;;;;;;1.33;1.10;;;18.80;62.90;;;;;;6100408;23;20130;-83
2023/09/25 06:18:37;;;;;;;1.40;1.10;;;18.80;62.90;;;;;;6100058;23;20244;-80
2023/09/25 06:21:05;;;;;;;1.15;0.82;;;18.80;62.90;;;;;;6074968;23;20149;-85
2023/09/25 06:23:39;;;;;;;1.10;0.90;;;18.80;62.90;;;;;;6095039;23;20667;-84
2023/09/25 06:26:17;;;;;;;;;;;;;;;;;;;;;
2023/09/25 06:28:43;;;;;;;1.10;1.00;;;18.80;63.00;;;;;;6061134;23;20305;-84
2023/09/25 06:31:16;;;;;;;0.82;0.80;;;18.80;63.00;;;;;;6096594;23;20587;-84
2023/09/25 06:33:57;;;;;;;;;;;;;;;;;;;;;
2023/09/25 06:36:31;;;;;;;1.55;1.00;;;18.80;63.00;;;;;;6059226;23;20228;-85
2023/09/25 06:38:57;;;;;;;1.40;1.13;;;18.90;62.80;;;;;;6120120;23;20158;-83
2023/09/25 06:41:26;;;;;;;1.48;1.13;;;18.80;62.70;;;;;;6096629;23;20611;-85
2023/09/25 06:43:54;;;;;;;1.20;1.10;;;18.90;63.80;;;;;;6097110;23;20136;-85
2023/09/25 06:46:57;;;;;;;1.90;1.40;;;18.90;62.80;;;;;;6120810;23;20139;-85
2023/09/25 06:49:23;;;;;;;1.20;1.10;;;19.00;62.70;;;;;;6083746;23;20151;-83
2023/09/25 06:52:40;;;;;;;;;;;;;;;;;;;;;
2023/09/25 06:55:07;;;;;;;1.13;1.02;;;18.90;62.70;;;;;;6060066;23;20222;-83
2023/09/25 06:57:50;;;;;;;1.50;1.05;;;19.00;62.60;;;;;;6111354;23;20529;-86
2023/09/25 07:00:29;;;;;;;1.38;1.20;;;19.00;62.70;;;;;;6017842;23;20161;-82
2023/09/25 07:02:59;;;;;;;1.38;1.08;;;18.90;62.80;;;;;;5978965;23;20217;-83
2023/09/25 07:05:31;;;;;;;1.48;1.20;;;18.90;62.90;;;;;;6014031;23;20191;-83
2023/09/25 07:08:38;;;;;;;1.70;1.17;;;18.90;63.00;;;;;;6010143;23;20150;-83
2023/09/25 07:11:08;;;;;;;1.35;1.20;;;18.80;63.10;;;;;;6097596;23;20298;-83
2023/09/25 07:13:34;;;;;;;1.23;0.98;;;18.90;63.20;;;;;;6050125;23;20188;-82
2023/09/25 07:16:10;;;;;;;1.35;1.10;;;18.90;63.20;;;;;;6097823;23;20145;-82
2023/09/25 07:18:38;;;;;;;1.67;1.20;;;18.80;63.10;;;;;;6095330;23;20250;-83
2023/09/25 07:21:06;;;;;;;1.35;1.20;;;18.80;63.20;;;;;;6094220;23;20152;-81
2023/09/25 07:23:32;;;;;;;1.63;1.20;;;18.80;63.20;;;;;;6094488;23;20164;-82
2023/09/25 07:26:01;;;;;;;1.52;1.23;;;18.90;63.30;;;;;;6094972;23;20821;-81
2023/09/25 07:28:27;;;;;;;1.50;1.15;;;18.80;63.30;;;;;;6112966;23;20253;-82
2023/09/25 07:30:54;;;;;;;1.55;1.15;;;18.80;63.40;;;;;;6158734;23;20143;-81
2023/09/25 07:33:22;;;;;;;2.47;1.20;;;18.80;63.40;;;;;;6183513;23;20538;-82
2023/09/25 07:35:48;;;;;;;1.35;1.23;;;18.80;63.40;;;;;;6183410;23;20463;-81
2023/09/25 07:38:14;;;;;;;1.30;1.20;;;18.80;63.50;;;;;;6183187;23;20182;-81
2023/09/25 07:40:41;;;;;;;1.50;1.40;;;18.90;63.60;;;;;;6157882;23;20158;-82
2023/09/25 07:43:07;;;;;;;1.92;1.17;;;18.80;63.50;;;;;;6183647;23;20599;-82
2023/09/25 07:45:33;;;;;;;1.42;1.13;;;18.80;63.60;;;;;;6158449;23;20239;-84
2023/09/25 07:47:59;;;;;;;1.17;1.05;;;18.80;63.60;;;;;;6133838;23;20182;-81
2023/09/25 07:50:25;;;;;;;2.00;1.30;;;18.80;63.60;;;;;;6120108;23;20831;-82
2023/09/25 07:52:54;;;;;;;1.70;1.30;;;18.80;63.70;;;;;;6096210;23;20809;-80
2023/09/25 07:55:21;;;;;;;1.60;1.20;;;18.90;63.90;;;;;;6120724;23;20137;-80
2023/09/25 07:57:47;;;;;;;1.13;0.95;;;18.90;63.90;;;;;;6122259;23;20136;-81
2023/09/25 08:00:22;;;;;;;1.20;1.10;;;18.80;63.90;;;;;;6120965;23;20132;-81
2023/09/25 08:02:52;;;;;;;2.03;1.30;;;18.80;63.90;;;;;;6120760;23;20125;-82
2023/09/25 08:05:19;;;;;;;1.48;1.20;;;18.80;64.00;;;;;;6095981;23;20215;-81
2023/09/25 08:07:46;;;;;;;1.67;1.20;;;18.80;64.10;;;;;;6095659;23;20249;-81
2023/09/25 08:10:12;;;;;;;1.50;1.40;;;18.80;64.30;;;;;;6120127;23;20186;-83
2023/09/25 08:12:38;;;;;;;1.63;1.30;;;18.80;64.40;;;;;;6072118;23;20162;-82
2023/09/25 08:15:04;;;;;;;1.20;1.10;;;18.80;64.50;;;;;;6119484;23;20172;-80
2023/09/25 08:17:31;;;;;;;1.38;1.25;;;18.80;64.70;;;;;;6095233;23;20148;-81
2023/09/25 08:19:56;;;;;;;1.67;1.30;;;18.70;64.70;;;;;;6120307;23;20176;-82
2023/09/25 08:22:22;;;;;;;1.98;1.40;;;18.70;64.80;;;;;;6120715;23;20167;-82
2023/09/25 08:24:48;;;;;;;1.60;1.30;;;18.70;64.90;;;;;;6120699;23;20143;-81
2023/09/25 08:27:14;;;;;;;2.03;1.50;;;18.70;65.00;;;;;;6122296;22;20223;-81
2023/09/25 08:29:40;;;;;;;1.98;1.30;;;18.60;65.20;;;;;;6151438;22;20150;-81
2023/09/25 08:32:08;;;;;;;1.60;1.50;;;18.70;65.20;;;;;;6100967;23;20159;-81
2023/09/25 08:34:34;;;;;;;1.30;1.20;;;18.70;65.30;;;;;;6151804;22;20190;-81
2023/09/25 08:37:00;;;;;;;1.42;1.30;;;18.70;65.40;;;;;;6151344;22;20265;-81
2023/09/25 08:39:29;;;;;;;1.70;1.30;;;18.70;65.50;;;;;;6125164;23;20183;-82
2023/09/25 08:41:54;;;;;;;1.92;1.65;;;18.70;65.60;;;;;;6100455;23;20567;-83
2023/09/25 08:44:20;;;;;;;1.55;1.27;;;18.70;65.60;;;;;;6100839;23;20158;-81
2023/09/25 08:46:46;;;;;;;1.67;1.35;;;18.70;65.60;;;;;;6151457;22;20151;-81
2023/09/25 08:49:12;;;;;;;2.17;1.20;;;18.70;65.60;;;;;;6125339;23;20143;-82
2023/09/25 08:51:39;;;;;;;1.33;1.08;;;18.70;65.60;;;;;;6125008;23;20136;-82
2023/09/25 08:54:06;;;;;;;1.65;1.50;;;18.60;65.60;;;;;;6101145;23;20167;-82
2023/09/25 08:56:43;;;;;;;3.13;1.20;;;18.70;65.70;;;;;;6101161;23;20516;-82
2023/09/25 08:59:09;;;;;;;1.75;1.48;;;18.70;65.70;;;;;;6104486;23;20457;-87
2023/09/25 09:01:34;;;;;;;1.42;1.30;;;18.70;65.80;;;;;;6100929;23;20639;-83
2023/09/25 09:04:07;;;;;;;1.65;1.40;;;18.70;65.80;;;;;;6101093;23;20489;-82
2023/09/25 09:06:32;;;;;;;1.60;1.40;;;18.70;65.90;;;;;;6152050;22;20147;-83
2023/09/25 09:08:58;;;;;;;1.58;1.40;;;18.70;65.80;;;;;;6100310;23;20160;-84
2023/09/25 09:11:34;;;;;;;1.48;1.30;;;18.70;65.90;;;;;;6083038;23;20151;-83
2023/09/25 09:14:00;;;;;;;1.30;1.20;;;18.70;66.00;;;;;;6125762;23;20242;-84
2023/09/25 09:16:25;;;;;;;1.70;1.40;;;18.70;66.00;;;;;;6125205;23;20144;-86
2023/09/25 09:19:03;;;;;;;1.63;1.40;;;18.70;66.00;;;;;;6125847;23;20147;-85
2023/09/25 09:21:43;;;;;;;1.60;1.27;;;18.60;66.00;;;;;;6152252;23;20139;-85
2023/09/25 09:24:19;;;;;;;1.92;1.45;;;18.70;66.10;;;;;;6043624;23;20211;-83
2023/09/25 09:26:47;;;;;;;1.83;1.35;;;18.70;66.10;;;;;;6042499;23;20588;-83
2023/09/25 09:29:17;;;;;;;1.55;1.40;;;18.70;66.20;;;;;;6065460;23;20690;-82
2023/09/25 09:31:43;;;;;;;1.75;1.30;;;18.70;66.20;;;;;;6128586;23;20607;-86
2023/09/25 09:34:09;;;;;;;1.80;1.38;;;18.70;66.20;;;;;;6129000;23;20217;-84
2023/09/25 09:36:34;;;;;;;1.83;1.40;;;18.70;66.30;;;;;;6104943;23;20208;-82
2023/09/25 09:39:01;;;;;;;1.60;1.33;;;18.80;66.30;;;;;;6153565;23;20527;-82
2023/09/25 09:41:27;;;;;;;1.63;1.30;;;18.80;66.20;;;;;;6129255;23;20611;-82
2023/09/25 09:43:53;;;;;;;2.10;1.40;;;18.70;66.10;;;;;;6129389;23;20254;-82
2023/09/25 09:46:19;;;;;;;1.60;1.38;;;18.80;66.10;;;;;;6153865;23;20151;-83
2023/09/25 09:48:46;;;;;;;1.27;1.00;;;18.90;66.30;;;;;;6129040;23;20646;-84
2023/09/25 09:51:13;;;;;;;2.03;1.45;;;18.80;66.00;;;;;;6129151;23;20151;-83
2023/09/25 09:53:39;;;;;;;1.50;1.40;;;18.90;66.20;;;;;;6128974;23;20167;-85
2023/09/25 09:56:05;;;;;;;1.10;1.00;;;18.80;66.00;;;;;;6162945;23;20578;-82
2023/09/25 09:58:31;;;;;;;2.03;1.40;;;18.80;66.00;;;;;;6188453;23;20142;-82
2023/09/25 10:00:58;;;;;;;1.35;1.23;;;18.80;66.00;;;;;;6188567;23;20213;-84
2023/09/25 10:03:24;;;;;;;2.00;1.52;;;18.90;66.10;;;;;;6132267;23;20210;-83
2023/09/25 10:05:50;;;;;;;1.88;1.35;;;18.90;66.00;;;;;;6096324;23;20567;-82
2023/09/25 10:08:16;;;;;;;1.88;1.38;;;18.90;66.10;;;;;;6121342;23;20202;-83
2023/09/25 10:10:45;;;;;;;1.77;1.30;;;18.80;65.90;;;;;;6120269;23;20137;-82
2023/09/25 10:13:13;;;;;;;1.63;1.50;;;18.90;65.90;;;;;;6073137;23;20172;-83
2023/09/25 10:15:40;;;;;;;1.50;1.30;;;18.90;65.90;;;;;;6120445;23;20139;-82
2023/09/25 10:18:06;;;;;;;1.70;1.42;;;18.90;65.80;;;;;;6120464;23;20498;-83
2023/09/25 10:20:38;;;;;;;1.70;1.50;;;18.90;65.80;;;;;;6120984;23;20144;-83
2023/09/25 10:23:09;;;;;;;1.63;1.30;;;18.80;65.70;;;;;;6097231;23;20141;-82
2023/09/25 10:25:52;;;;;;;1.63;1.40;;;18.90;65.70;;;;;;6121448;23;20171;-84
2023/09/25 10:28:24;;;;;;;1.55;1.45;;;18.90;65.70;;;;;;6135143;22;20187;-82
2023/09/25 10:30:50;;;;;;;1.58;1.27;;;18.90;65.80;;;;;;6151386;23;20167;-82
2023/09/25 10:33:17;;;;;;;1.63;1.52;;;19.00;65.80;;;;;;6125657;23;20193;-82
2023/09/25 10:35:44;;;;;;;2.10;1.50;;;18.90;65.60;;;;;;6125965;23;20262;-83
2023/09/25 10:38:13;;;;;;;1.48;1.38;;;18.90;65.60;;;;;;6151802;23;20218;-82
2023/09/25 10:40:44;;;;;;;1.50;1.40;;;19.00;65.60;;;;;;6126143;23;20136;-82
2023/09/25 10:43:09;;;;;;;1.23;1.13;;;19.00;65.50;;;;;;6100996;23;20491;-83
2023/09/25 10:45:35;;;;;;;1.83;1.42;;;19.00;66.40;;;;;;6101237;23;20242;-83
2023/09/25 10:48:01;;;;;;;1.52;1.35;;;19.00;65.50;;;;;;6101208;23;20163;-83
2023/09/25 10:50:28;;;;;;;2.38;1.80;;;19.10;65.40;;;;;;6100922;23;20159;-84
2023/09/25 10:52:54;;;;;;;1.70;1.50;;;19.00;65.40;;;;;;6125842;23;20567;-83
2023/09/25 10:55:20;;;;;;;2.08;1.65;;;19.10;65.50;;;;;;6125147;23;20213;-82
2023/09/25 10:57:46;;;;;;;1.83;1.40;;;19.00;65.50;;;;;;6151327;22;20132;-83
2023/09/25 11:00:15;;;;;;;2.03;1.50;;;19.10;65.50;;;;;;6151234;22;20444;-83
2023/09/25 11:02:42;;;;;;;1.60;1.50;;;19.00;65.40;;;;;;6125615;23;20140;-83
2023/09/25 11:05:09;;;;;;;1.40;1.30;;;19.00;65.50;;;;;;6101010;23;20512;-83
2023/09/25 11:07:36;;;;;;;1.50;1.40;;;19.00;65.50;;;;;;6151340;22;20139;-82
2023/09/25 11:10:03;;;;;;;2.60;1.52;;;19.00;65.40;;;;;;6124869;23;20159;-83
2023/09/25 11:12:30;;;;;;;1.50;1.30;;;19.00;65.40;;;;;;6077043;23;20246;-84
2023/09/25 11:14:57;;;;;;;1.65;1.38;;;19.00;65.40;;;;;;6124694;23;20487;-83
2023/09/25 11:17:23;;;;;;;2.72;1.77;;;19.00;65.40;;;;;;6100766;23;20182;-82
2023/09/25 11:19:51;;;;;;;2.03;1.50;;;19.00;65.40;;;;;;6124841;23;20151;-82
2023/09/25 11:22:19;;;;;;;1.70;1.52;;;19.00;65.50;;;;;;6150887;23;20158;-82
2023/09/25 11:24:53;;;;;;;1.38;1.27;;;19.00;65.50;;;;;;6125312;23;20444;-82
2023/09/25 11:27:19;;;;;;;2.03;1.40;;;18.90;65.50;;;;;;6076714;22;20247;-83
2023/09/25 11:29:49;;;;;;;1.52;1.40;;;19.00;65.60;;;;;;6100925;23;20571;-82
2023/09/25 11:32:16;;;;;;;1.40;1.30;;;19.00;66.50;;;;;;6125136;23;20147;-82
2023/09/25 11:34:43;;;;;;;1.77;1.42;;;19.00;65.60;;;;;;6101130;23;20562;-83
2023/09/25 11:37:20;;;;;;;1.23;1.13;;;18.90;65.50;;;;;;6077167;23;20160;-82
2023/09/25 11:39:48;;;;;;;1.50;1.40;;;19.00;65.60;;;;;;6201780;23;20155;-82
2023/09/25 11:42:15;;;;;;;2.10;1.70;;;18.90;65.60;;;;;;6205900;23;20151;-82
2023/09/25 11:44:40;;;;;;;1.90;1.50;;;18.90;65.60;;;;;;6106873;23;20136;-83
2023/09/25 11:47:06;;;;;;;1.98;1.42;;;18.90;65.60;;;;;;6159315;22;20151;-84
2023/09/25 11:49:32;;;;;;;1.73;1.50;;;18.90;65.50;;;;;;6133321;23;20230;-83
2023/09/25 11:51:58;;;;;;;2.00;1.80;;;18.90;65.60;;;;;;6157883;23;20135;-82
2023/09/25 11:54:24;;;;;;;2.25;1.70;;;18.90;65.50;;;;;;6124999;23;20172;-82
2023/09/25 11:56:50;;;;;;;1.55;1.45;;;19.00;65.60;;;;;;6125534;23;20139;-82
2023/09/25 11:59:16;;;;;;;2.03;1.60;;;19.00;65.50;;;;;;6125090;23;20132;-81
2023/09/25 12:01:50;;;;;;;1.58;1.48;;;19.00;65.40;;;;;;6124771;23;20596;-83
2023/09/25 12:04:17;;;;;;;1.85;1.60;;;19.00;65.20;;;;;;6089936;23;20187;-82
2023/09/25 12:06:43;;;;;;;1.60;1.50;;;19.00;65.40;;;;;;6065830;23;20160;-82
2023/09/25 12:09:11;;;;;;;1.73;1.35;;;19.00;65.30;;;;;;6064167;23;20192;-82
2023/09/25 12:11:39;;;;;;;1.83;1.50;;;19.00;65.40;;;;;;6065446;23;20176;-82
2023/09/25 12:14:04;;;;;;;1.58;1.48;;;19.00;65.50;;;;;;6166763;23;20172;-82
2023/09/25 12:16:31;;;;;;;1.52;1.30;;;19.00;65.40;;;;;;6065312;23;20149;-82
2023/09/25 12:18:56;;;;;;;1.83;1.60;;;18.90;65.40;;;;;;6041339;23;20203;-82
2023/09/25 12:21:24;;;;;;;2.55;1.52;;;19.00;65.50;;;;;;6089556;23;20137;-83
2023/09/25 12:23:49;;;;;;;1.48;1.38;;;19.00;65.50;;;;;;6089338;23;20153;-83
2023/09/25 12:26:15;;;;;;;1.45;1.35;;;19.00;65.40;;;;;;6064977;23;20149;-83
2023/09/25 12:28:41;;;;;;;1.88;1.67;;;19.00;65.40;;;;;;6041221;23;20616;-83
2023/09/25 12:31:07;;;;;;;3.15;1.60;;;19.10;65.40;;;;;;6166602;23;20195;-82
2023/09/25 12:33:33;;;;;;;1.70;1.60;;;19.10;65.40;;;;;;6065315;23;20173;-82
2023/09/25 12:35:59;;;;;;;1.52;1.42;;;19.10;65.40;;;;;;6085204;23;20291;-82
2023/09/25 12:38:25;;;;;;;1.88;1.60;;;19.10;65.50;;;;;;6091642;23;20133;-83
2023/09/25 12:40:51;;;;;;;2.28;1.80;;;19.10;65.40;;;;;;6090366;23;20604;-82
2023/09/25 12:43:17;;;;;;;1.65;1.55;;;19.00;65.40;;;;;;6090414;23;20159;-82
2023/09/25 12:45:43;;;;;;;1.90;1.55;;;19.00;65.50;;;;;;6091834;23;20141;-82
2023/09/25 12:48:09;;;;;;;1.67;1.58;;;19.10;65.60;;;;;;6090219;23;20156;-82
2023/09/25 12:50:35;;;;;;;1.70;1.60;;;19.10;65.60;;;;;;6114256;23;20137;-82
2023/09/25 12:53:01;;;;;;;1.58;1.48;;;19.10;65.60;;;;;;6114538;23;20141;-83
2023/09/25 12:55:30;;;;;;;2.78;1.90;;;19.10;65.60;;;;;;6114725;23;20138;-83
2023/09/25 12:57:56;;;;;;;1.60;1.40;;;19.10;65.70;;;;;;6090269;23;20156;-83
2023/09/25 13:00:25;;;;;;;4.75;1.70;;;19.10;65.80;;;;;;6114667;23;20161;-82
2023/09/25 13:02:51;;;;;;;1.70;1.58;;;19.10;65.80;;;;;;6089977;23;20146;-83
2023/09/25 13:05:20;;;;;;;1.55;1.40;;;19.10;65.90;;;;;;6066184;23;20176;-83
2023/09/25 13:07:46;;;;;;;1.58;1.40;;;19.10;66.30;;;;;;6217058;23;20187;-83
2023/09/25 13:10:12;;;;;;;1.65;1.52;;;19.10;66.00;;;;;;6091220;23;20149;-83
2023/09/25 13:12:39;;;;;;;1.90;1.70;;;19.10;66.10;;;;;;6115779;23;20456;-82
2023/09/25 13:15:06;;;;;;;2.35;1.70;;;19.10;66.00;;;;;;6115391;23;20167;-83
2023/09/25 13:17:35;;;;;;;1.50;1.40;;;19.10;66.20;;;;;;6091942;23;20142;-82
2023/09/25 13:20:03;;;;;;;1.42;1.33;;;19.10;66.30;;;;;;6167083;23;20164;-82
2023/09/25 13:22:28;;;;;;;2.03;1.67;;;19.00;66.10;;;;;;6115273;23;20136;-82
2023/09/25 13:24:55;;;;;;;2.00;1.70;;;19.10;66.30;;;;;;6091551;23;20152;-82
2023/09/25 13:27:20;;;;;;;1.70;1.40;;;19.10;66.40;;;;;;6095663;22;20141;-82
2023/09/25 13:29:46;;;;;;;2.28;2.08;;;19.10;66.30;;;;;;6100887;23;20596;-82
2023/09/25 13:32:13;;;;;;;1.73;1.50;;;19.10;66.40;;;;;;6125888;23;20148;-82
2023/09/25 13:34:40;;;;;;;1.80;1.50;;;19.10;66.50;;;;;;6125515;23;20202;-82